Time;durP1;ratioP1;P1;durP2;ratioP2;P2;SDS_P1;SDS_P2;PMS_P1;PMS_P2;Temp;Humidity;BMP_temperature;BMP_pressure;BME280_temperature;BME280_humidity;BME280_pressure;Samples;Min_cycle;Max_cycle;Signal;HPM_P1;HPM_P2
2022/03/31 04:01:49;;;;;;;20.87;14.80;;;7.30;99.90;;;;;;5326793;23;20508;-74
2022/03/31 04:04:15;;;;;;;19.60;14.17;;;7.30;99.90;;;;;;4946911;29;20949;-74
2022/03/31 04:06:42;;;;;;;21.07;15.30;;;7.30;99.90;;;;;;4945560;29;20464;-75
2022/03/31 04:09:09;;;;;;;20.00;15.00;;;7.30;99.90;;;;;;4946667;29;20545;-75
2022/03/31 04:11:36;;;;;;;23.73;15.97;;;7.30;99.90;;;;;;4946655;28;20548;-74
2022/03/31 04:14:03;;;;;;;19.87;14.13;;;7.30;99.90;;;;;;4946374;29;20544;-73
2022/03/31 04:16:30;;;;;;;22.40;15.13;;;7.40;99.90;;;;;;4946226;29;20548;-75
2022/03/31 04:18:58;;;;;;;22.00;15.23;;;7.40;99.90;;;;;;4946813;29;20467;-76
2022/03/31 04:21:25;;;;;;;24.77;15.30;;;7.40;99.90;;;;;;4946472;28;20931;-75
2022/03/31 04:23:52;;;;;;;22.87;16.13;;;7.40;99.90;;;;;;4946365;29;20485;-75
2022/03/31 04:26:19;;;;;;;26.63;17.67;;;7.40;99.90;;;;;;4947201;28;20556;-78
2022/03/31 04:28:46;;;;;;;23.03;17.00;;;7.30;99.90;;;;;;4949904;29;20461;-77
2022/03/31 04:31:13;;;;;;;26.17;16.47;;;7.20;99.90;;;;;;4949747;28;20477;-74
2022/03/31 04:33:40;;;;;;;22.47;15.83;;;7.20;99.90;;;;;;4949894;29;20873;-74
2022/03/31 04:36:08;;;;;;;23.27;16.20;;;7.20;99.90;;;;;;4951280;29;20461;-75
2022/03/31 04:38:35;;;;;;;20.90;15.47;;;7.20;99.90;;;;;;4951556;29;20457;-75
2022/03/31 04:41:02;;;;;;;23.10;16.70;;;7.20;99.90;;;;;;4952045;28;20487;-74
2022/03/31 04:43:29;;;;;;;25.20;16.80;;;7.20;99.90;;;;;;4952021;29;20463;-75
2022/03/31 04:45:56;;;;;;;23.50;16.73;;;7.20;99.90;;;;;;4951804;29;20499;-75
2022/03/31 04:48:23;;;;;;;21.97;15.63;;;7.20;99.90;;;;;;4951560;29;20461;-79
2022/03/31 04:50:49;;;;;;;21.87;15.53;;;7.20;99.90;;;;;;4951820;28;21001;-74
2022/03/31 04:53:18;;;;;;;26.43;17.77;;;7.10;99.90;;;;;;4951650;29;20964;-74
2022/03/31 04:55:45;;;;;;;26.93;17.80;;;7.10;99.90;;;;;;4951500;28;20485;-74
2022/03/31 04:58:12;;;;;;;24.13;17.23;;;7.10;99.90;;;;;;4950881;28;20457;-67
2022/03/31 05:00:38;;;;;;;27.10;17.30;;;7.10;99.90;;;;;;4951459;28;20520;-67
2022/03/31 05:03:05;;;;;;;26.63;17.93;;;7.10;99.90;;;;;;4951734;29;20484;-66
2022/03/31 05:05:32;;;;;;;25.80;17.43;;;7.10;99.90;;;;;;4950694;29;20501;-67
2022/03/31 05:07:59;;;;;;;24.23;17.07;;;7.10;99.90;;;;;;4950500;28;20576;-77
2022/03/31 05:10:28;;;;;;;27.00;18.10;;;7.10;99.90;;;;;;4951199;28;20469;-75
2022/03/31 05:12:54;;;;;;;26.60;17.33;;;7.10;99.90;;;;;;4951983;29;20461;-75
2022/03/31 05:15:21;;;;;;;23.70;16.67;;;7.00;99.90;;;;;;4951407;29;20964;-77
2022/03/31 05:17:48;;;;;;;26.93;18.00;;;7.10;99.90;;;;;;4950670;29;20848;-75
2022/03/31 05:20:15;;;;;;;27.83;17.73;;;7.10;99.90;;;;;;4951232;28;20458;-75
2022/03/31 05:22:42;;;;;;;26.93;17.00;;;7.10;99.90;;;;;;4951324;29;20480;-76
2022/03/31 05:25:11;;;;;;;25.60;16.80;;;7.20;99.90;;;;;;4951074;28;20600;-75
2022/03/31 05:27:45;;;;;;;26.60;18.63;;;7.20;99.90;;;;;;4950691;29;20472;-76
2022/03/31 05:30:13;;;;;;;25.67;17.07;;;7.20;99.90;;;;;;4951286;28;20537;-75
2022/03/31 05:32:40;;;;;;;28.87;17.63;;;7.20;99.90;;;;;;4951647;29;20463;-75
2022/03/31 05:35:09;;;;;;;26.97;17.40;;;7.20;99.90;;;;;;4950558;28;20489;-74
2022/03/31 05:37:36;;;;;;;28.87;20.60;;;7.30;99.90;;;;;;4949923;28;20465;-75
2022/03/31 05:40:04;;;;;;;27.50;17.97;;;7.30;99.90;;;;;;4951273;28;20466;-76
2022/03/31 05:42:32;;;;;;;27.73;18.90;;;7.30;99.90;;;;;;4949582;28;20481;-76
2022/03/31 05:45:00;;;;;;;28.40;18.73;;;7.30;99.90;;;;;;4950597;29;20871;-76
2022/03/31 05:47:27;;;;;;;27.97;18.27;;;7.30;99.90;;;;;;4949859;29;20469;-75
2022/03/31 05:49:54;;;;;;;32.20;19.60;;;7.30;99.90;;;;;;4950633;29;20540;-75
2022/03/31 05:52:22;;;;;;;26.80;18.87;;;7.30;99.90;;;;;;4950897;28;20576;-76
2022/03/31 05:54:49;;;;;;;31.40;20.13;;;7.30;99.90;;;;;;4950455;29;21181;-75
2022/03/31 05:57:16;;;;;;;28.77;18.90;;;7.30;99.90;;;;;;4950256;29;20495;-74
2022/03/31 05:59:43;;;;;;;28.40;19.83;;;7.30;99.90;;;;;;4951057;29;20449;-76
2022/03/31 06:02:12;;;;;;;28.27;19.63;;;7.30;99.90;;;;;;4950085;28;20501;-78
2022/03/31 06:04:39;;;;;;;31.10;19.50;;;7.30;99.90;;;;;;4950378;29;20468;-76
2022/03/31 06:07:06;;;;;;;27.23;17.93;;;7.30;99.90;;;;;;4949597;29;20457;-76
2022/03/31 06:09:33;;;;;;;27.23;18.70;;;7.30;99.90;;;;;;4949987;29;20449;-76
2022/03/31 06:12:00;;;;;;;28.80;18.43;;;7.30;99.90;;;;;;4950035;28;20481;-76
2022/03/31 06:14:27;;;;;;;28.80;18.60;;;7.30;99.90;;;;;;4950190;29;20461;-75
2022/03/31 06:16:54;;;;;;;31.27;19.00;;;7.40;99.90;;;;;;4949333;29;20582;-75
2022/03/31 06:19:22;;;;;;;27.33;18.30;;;7.40;99.90;;;;;;4950224;29;21028;-78
2022/03/31 06:21:49;;;;;;;30.13;19.63;;;7.40;99.90;;;;;;4950541;28;20568;-75
2022/03/31 06:24:16;;;;;;;29.70;18.63;;;7.40;99.90;;;;;;4949829;29;20463;-75
2022/03/31 06:26:43;;;;;;;34.97;20.10;;;7.40;99.90;;;;;;4949427;29;20496;-78
2022/03/31 06:29:10;;;;;;;30.50;21.70;;;7.40;99.90;;;;;;4950306;29;20462;-77
2022/03/31 06:31:38;;;;;;;32.33;18.37;;;7.50;99.90;;;;;;4949897;28;20474;-75
2022/03/31 06:34:05;;;;;;;26.83;18.27;;;7.50;99.90;;;;;;4949827;29;20985;-75
2022/03/31 06:36:33;;;;;;;31.50;18.30;;;7.50;99.90;;;;;;4949557;29;20540;-75
2022/03/31 06:39:00;;;;;;;27.17;19.30;;;7.50;99.90;;;;;;4949900;29;20461;-75
2022/03/31 06:41:27;;;;;;;29.17;18.17;;;7.50;99.90;;;;;;4949798;28;20939;-78
2022/03/31 06:43:54;;;;;;;29.67;18.60;;;7.50;99.90;;;;;;4949615;29;20497;-75
2022/03/31 06:46:21;;;;;;;29.43;19.47;;;7.50;99.90;;;;;;4949149;29;20561;-76
2022/03/31 06:48:48;;;;;;;27.87;17.83;;;7.60;99.90;;;;;;4948603;28;21032;-75
2022/03/31 06:51:17;;;;;;;29.00;18.97;;;7.60;99.90;;;;;;4949322;28;20485;-76
2022/03/31 06:53:46;;;;;;;25.03;17.50;;;7.70;99.90;;;;;;4947373;29;20456;-75
2022/03/31 06:56:16;;;;;;;24.07;16.57;;;7.70;99.90;;;;;;4946998;29;20458;-78
2022/03/31 06:58:44;;;;;;;30.87;19.40;;;7.70;99.90;;;;;;4947049;29;20465;-76
2022/03/31 07:01:11;;;;;;;28.53;17.90;;;7.70;99.90;;;;;;4947224;28;20553;-75
2022/03/31 07:03:38;;;;;;;27.00;17.97;;;7.70;99.90;;;;;;4947389;29;20456;-76
2022/03/31 07:06:05;;;;;;;25.93;17.10;;;7.70;99.90;;;;;;4947116;29;21035;-76
2022/03/31 07:08:33;;;;;;;29.50;19.43;;;7.70;99.90;;;;;;4946691;29;20536;-75
2022/03/31 07:11:01;;;;;;;30.50;20.20;;;7.70;99.90;;;;;;4946945;28;20556;-76
2022/03/31 07:13:28;;;;;;;28.13;17.97;;;7.70;99.90;;;;;;4947372;29;20524;-75
2022/03/31 07:15:55;;;;;;;31.23;20.43;;;7.70;99.90;;;;;;4946866;29;21248;-76
2022/03/31 07:18:22;;;;;;;29.63;18.70;;;7.80;99.90;;;;;;4946812;29;20457;-76
2022/03/31 07:20:49;;;;;;;29.20;18.70;;;7.80;99.90;;;;;;4947175;28;20485;-76
2022/03/31 07:23:18;;;;;;;28.03;18.60;;;7.80;99.90;;;;;;4947166;29;20452;-77
2022/03/31 07:25:45;;;;;;;30.77;19.87;;;7.90;99.90;;;;;;4947094;29;20607;-75
2022/03/31 07:28:14;;;;;;;26.73;18.90;;;7.90;99.90;;;;;;4946651;29;20493;-76
2022/03/31 07:30:41;;;;;;;27.33;18.70;;;7.90;99.90;;;;;;4947156;28;20485;-75
2022/03/31 07:33:08;;;;;;;28.53;18.07;;;8.00;99.90;;;;;;4946938;29;20970;-75
2022/03/31 07:35:37;;;;;;;26.00;17.77;;;8.00;99.90;;;;;;4947076;29;21253;-79
2022/03/31 07:38:07;;;;;;;29.73;19.27;;;8.00;99.90;;;;;;4946216;29;20962;-75
2022/03/31 07:40:35;;;;;;;27.07;18.30;;;8.00;99.90;;;;;;4947236;28;20832;-74
2022/03/31 07:43:02;;;;;;;29.70;18.37;;;8.10;99.90;;;;;;4947000;29;20482;-75
2022/03/31 07:45:32;;;;;;;27.40;18.40;;;8.10;99.90;;;;;;4947049;29;20493;-77
2022/03/31 07:47:59;;;;;;;26.13;16.90;;;8.10;99.90;;;;;;4946399;29;20457;-76
2022/03/31 07:50:26;;;;;;;28.70;18.00;;;8.10;99.90;;;;;;4947001;28;20464;-75
2022/03/31 07:52:53;;;;;;;28.43;18.93;;;8.10;99.90;;;;;;4946549;29;20544;-79
2022/03/31 07:55:20;;;;;;;31.10;19.70;;;8.10;99.90;;;;;;4947038;29;20500;-77
2022/03/31 07:57:48;;;;;;;29.80;19.00;;;8.20;99.90;;;;;;4946901;29;20457;-76
2022/03/31 08:00:17;;;;;;;28.43;18.07;;;8.20;99.90;;;;;;4947517;28;20651;-76
2022/03/31 08:02:47;;;;;;;27.00;17.50;;;8.20;99.90;;;;;;4950755;28;20544;-77
2022/03/31 08:05:20;;;;;;;30.60;19.53;;;8.20;99.90;;;;;;4950547;29;20464;-77
2022/03/31 08:07:47;;;;;;;26.50;18.30;;;8.20;99.90;;;;;;4950039;28;20457;-77
2022/03/31 08:10:14;;;;;;;24.60;17.60;;;8.20;99.90;;;;;;4950516;28;20456;-76
2022/03/31 08:12:42;;;;;;;29.83;18.70;;;8.20;99.90;;;;;;4950241;29;20552;-77
2022/03/31 08:15:12;;;;;;;31.67;19.07;;;8.20;99.90;;;;;;4950100;29;20472;-78
2022/03/31 08:17:39;;;;;;;29.03;19.90;;;8.20;99.90;;;;;;4949401;29;20878;-77
2022/03/31 08:20:09;;;;;;;26.27;18.30;;;8.30;99.90;;;;;;4950261;28;20659;-78
2022/03/31 08:22:36;;;;;;;28.33;18.30;;;8.30;99.90;;;;;;4949666;28;20558;-78
2022/03/31 08:25:04;;;;;;;31.23;20.40;;;8.40;99.90;;;;;;4949880;29;20844;-77
2022/03/31 08:27:32;;;;;;;29.97;19.27;;;8.30;99.90;;;;;;4949664;29;20457;-77
2022/03/31 08:30:00;;;;;;;30.87;20.20;;;8.40;99.90;;;;;;4950250;28;20857;-77
2022/03/31 08:32:27;;;;;;;29.80;18.80;;;8.40;99.90;;;;;;4949823;28;20473;-77
2022/03/31 08:34:54;;;;;;;30.60;18.80;;;8.40;99.90;;;;;;4950411;29;20560;-77
2022/03/31 08:37:23;;;;;;;31.67;19.87;;;8.50;99.90;;;;;;4949594;29;20542;-76
2022/03/31 08:39:50;;;;;;;29.70;18.97;;;8.50;99.90;;;;;;4950138;29;21000;-77
2022/03/31 08:42:17;;;;;;;26.07;17.83;;;8.50;99.90;;;;;;4949599;28;21089;-76
2022/03/31 08:44:45;;;;;;;27.27;18.97;;;8.60;99.90;;;;;;4949238;29;20457;-77
2022/03/31 08:47:16;;;;;;;25.83;17.93;;;8.60;99.90;;;;;;4949484;29;20501;-76
2022/03/31 08:49:46;;;;;;;23.50;17.13;;;8.70;99.90;;;;;;4949812;29;20453;-79
2022/03/31 08:52:13;;;;;;;28.17;20.60;;;8.80;99.90;;;;;;4949420;28;20579;-79
2022/03/31 08:54:42;;;;;;;25.40;18.20;;;8.90;99.90;;;;;;4949560;29;21066;-76
2022/03/31 08:57:09;;;;;;;28.27;19.00;;;8.90;99.90;;;;;;4950155;29;20508;-76
2022/03/31 08:59:36;;;;;;;29.00;18.40;;;8.90;99.90;;;;;;4933060;29;20540;-76
2022/03/31 09:02:03;;;;;;;25.77;18.40;;;8.90;99.90;;;;;;4932699;29;20238;-76
2022/03/31 09:04:30;;;;;;;25.63;18.43;;;9.00;99.90;;;;;;4932177;29;20497;-79
2022/03/31 09:07:03;;;;;;;25.03;18.40;;;9.00;99.90;;;;;;4931558;29;20502;-76
2022/03/31 09:09:30;;;;;;;28.67;17.47;;;9.00;99.90;;;;;;4932044;29;20458;-76
2022/03/31 09:11:59;;;;;;;26.27;17.50;;;9.10;99.90;;;;;;4930847;29;20526;-76
2022/03/31 09:14:30;;;;;;;25.03;17.60;;;9.20;99.90;;;;;;4932025;29;20497;-76
2022/03/31 09:16:57;;;;;;;30.37;18.63;;;9.20;99.90;;;;;;4931887;29;20537;-75
2022/03/31 09:19:25;;;;;;;26.10;17.97;;;9.30;99.90;;;;;;4932383;29;20459;-75
2022/03/31 09:21:53;;;;;;;25.83;17.70;;;9.30;99.90;;;;;;4932173;29;20490;-77
2022/03/31 09:24:21;;;;;;;25.17;17.63;;;9.40;99.90;;;;;;4931955;29;20550;-76
2022/03/31 09:26:49;;;;;;;29.33;18.23;;;9.40;99.90;;;;;;4931155;29;20517;-79
2022/03/31 09:29:20;;;;;;;27.53;18.03;;;9.40;99.90;;;;;;4930902;29;20561;-68
2022/03/31 09:31:47;;;;;;;26.83;18.20;;;9.40;99.90;;;;;;4929965;29;20892;-69
2022/03/31 09:34:15;;;;;;;27.40;18.57;;;9.40;99.90;;;;;;4930715;29;20459;-76
2022/03/31 09:36:48;;;;;;;26.30;18.27;;;9.50;99.90;;;;;;4931778;29;20462;-76
2022/03/31 09:39:17;;;;;;;27.10;18.27;;;9.50;99.90;;;;;;4932047;29;20585;-78
2022/03/31 09:41:47;;;;;;;24.37;18.03;;;9.50;99.90;;;;;;4931974;29;20489;-77
2022/03/31 09:44:15;;;;;;;25.77;17.83;;;9.60;99.90;;;;;;4931487;29;20847;-77
2022/03/31 09:46:45;;;;;;;23.70;17.30;;;9.50;99.90;;;;;;4931485;29;20530;-76
2022/03/31 09:49:14;;;;;;;31.40;19.50;;;9.40;99.90;;;;;;4931943;29;20454;-77
2022/03/31 09:51:42;;;;;;;26.33;18.20;;;9.30;99.90;;;;;;4932077;29;20502;-76
2022/03/31 09:54:09;;;;;;;26.77;17.40;;;9.20;99.90;;;;;;4932078;29;20470;-77
2022/03/31 09:56:39;;;;;;;23.37;17.33;;;9.30;99.90;;;;;;4931428;29;20458;-76
2022/03/31 09:59:07;;;;;;;25.50;16.80;;;9.30;99.90;;;;;;4931724;29;20458;-76
2022/03/31 10:01:35;;;;;;;26.40;17.83;;;9.40;99.90;;;;;;4931664;29;20540;-76
2022/03/31 10:04:06;;;;;;;29.47;18.60;;;9.30;99.90;;;;;;4931837;29;20451;-76
2022/03/31 10:06:34;;;;;;;26.47;18.13;;;9.30;99.90;;;;;;4931158;29;21234;-78
2022/03/31 10:09:02;;;;;;;24.53;17.67;;;9.40;99.90;;;;;;4931851;29;20494;-78
2022/03/31 10:11:30;;;;;;;26.20;17.50;;;9.40;99.90;;;;;;4930427;29;20581;-76
2022/03/31 10:14:18;;;;;;;26.00;17.70;;;9.50;99.90;;;;;;4929792;29;20454;-76
2022/03/31 10:16:50;;;;;;;28.77;18.70;;;9.50;99.90;;;;;;4928970;29;20455;-76
2022/03/31 10:19:28;;;;;;;30.13;18.33;;;9.50;99.90;;;;;;4928617;29;20558;-77
2022/03/31 10:22:04;;;;;;;27.13;17.80;;;9.60;99.90;;;;;;4941105;29;20473;-76
2022/03/31 10:24:44;;;;;;;26.57;17.63;;;9.60;99.90;;;;;;4939880;29;20520;-77
2022/03/31 10:27:16;;;;;;;28.30;17.53;;;9.70;99.90;;;;;;4947391;28;20500;-77
2022/03/31 10:29:46;;;;;;;26.00;17.87;;;9.70;99.90;;;;;;4948309;29;20881;-76
2022/03/31 10:32:21;;;;;;;26.60;16.67;;;9.80;99.90;;;;;;4948391;28;20481;-78
2022/03/31 10:34:50;;;;;;;22.67;16.00;;;9.80;99.90;;;;;;4947847;29;20475;-77
2022/03/31 10:37:30;;;;;;;26.50;18.40;;;9.90;99.90;;;;;;4947130;29;20536;-78
2022/03/31 10:39:58;;;;;;;22.50;16.33;;;9.90;99.90;;;;;;4947685;29;20504;-78
2022/03/31 10:42:25;;;;;;;26.23;17.43;;;10.00;99.90;;;;;;4948440;28;20473;-77
2022/03/31 10:45:04;;;;;;;23.10;16.10;;;10.00;99.90;;;;;;4950165;29;20544;-76
2022/03/31 10:47:33;;;;;;;25.63;18.10;;;10.00;99.90;;;;;;4949334;29;20503;-78
2022/03/31 10:50:01;;;;;;;26.27;17.27;;;10.10;99.90;;;;;;4949806;29;20552;-76
2022/03/31 10:52:29;;;;;;;24.80;17.53;;;10.10;99.90;;;;;;4949310;28;20489;-76
2022/03/31 10:55:07;;;;;;;21.67;16.47;;;10.30;99.90;;;;;;4949315;28;20593;-76
2022/03/31 10:57:42;;;;;;;25.47;17.27;;;10.40;99.90;;;;;;4948280;29;20489;-77
2022/03/31 11:00:11;;;;;;;25.40;18.37;;;10.60;99.90;;;;;;4948816;29;20824;-76
2022/03/31 11:02:42;;;;;;;25.90;17.33;;;10.90;99.90;;;;;;4949120;28;20537;-79
2022/03/31 11:05:11;;;;;;;22.87;16.77;;;11.10;99.90;;;;;;4949113;29;20457;-77
2022/03/31 11:07:38;;;;;;;27.10;19.30;;;11.10;99.90;;;;;;4947894;29;21331;-78
2022/03/31 11:10:08;;;;;;;24.67;16.70;;;11.10;99.90;;;;;;4948574;29;20489;-77
2022/03/31 11:12:37;;;;;;;25.33;16.87;;;11.20;99.90;;;;;;4947024;28;20480;-77
2022/03/31 11:15:07;;;;;;;25.70;16.80;;;11.30;99.90;;;;;;4947522;29;20461;-76
2022/03/31 11:17:35;;;;;;;23.90;16.47;;;11.40;99.90;;;;;;4946990;28;20535;-70
2022/03/31 11:20:06;;;;;;;27.00;17.00;;;11.40;99.90;;;;;;4948020;29;20512;-77
2022/03/31 11:22:34;;;;;;;24.97;16.17;;;11.50;99.90;;;;;;4948910;28;20482;-78
2022/03/31 11:25:11;;;;;;;26.70;17.20;;;11.50;99.90;;;;;;4948269;29;20512;-78
2022/03/31 11:27:41;;;;;;;23.50;16.37;;;11.50;99.90;;;;;;4947366;29;21034;-77
2022/03/31 11:30:11;;;;;;;23.57;16.40;;;11.70;99.90;;;;;;4948604;29;20453;-77
2022/03/31 11:32:39;;;;;;;25.43;16.73;;;11.80;99.90;;;;;;4948633;28;20481;-77
2022/03/31 11:35:11;;;;;;;26.50;17.20;;;11.70;99.90;;;;;;4949209;28;20460;-78
2022/03/31 11:37:45;;;;;;;26.00;17.60;;;11.80;99.90;;;;;;4951945;29;20426;-77
2022/03/31 11:40:14;;;;;;;25.43;16.47;;;11.80;99.90;;;;;;4952346;29;20497;-80
2022/03/31 11:42:45;;;;;;;21.83;15.00;;;11.90;99.90;;;;;;4951684;29;20453;-81
2022/03/31 11:45:22;;;;;;;27.33;16.63;;;11.90;99.90;;;;;;4951903;29;20915;-79
2022/03/31 11:47:56;;;;;;;24.33;16.40;;;11.90;99.90;;;;;;4952588;29;20573;-81
2022/03/31 11:50:26;;;;;;;24.43;16.67;;;11.80;99.90;;;;;;4951900;28;20464;-76
2022/03/31 11:52:55;;;;;;;27.93;17.17;;;11.80;99.90;;;;;;4951952;28;20824;-77
2022/03/31 11:55:22;;;;;;;29.43;17.23;;;11.70;99.90;;;;;;4952002;28;21021;-78
2022/03/31 11:57:57;;;;;;;28.60;18.00;;;11.60;99.90;;;;;;4951090;28;20548;-78
2022/03/31 12:00:27;;;;;;;26.70;17.13;;;11.70;99.90;;;;;;4951947;28;20540;-78
2022/03/31 12:03:05;;;;;;;21.60;15.73;;;11.80;99.90;;;;;;4952089;29;20508;-76
2022/03/31 12:05:32;;;;;;;22.97;16.90;;;11.80;99.90;;;;;;4951657;29;20954;-77
2022/03/31 12:08:02;;;;;;;23.73;15.77;;;11.80;99.90;;;;;;4951263;29;20489;-75
2022/03/31 12:10:30;;;;;;;21.23;15.63;;;11.90;99.90;;;;;;4952287;28;20529;-76
2022/03/31 12:13:02;;;;;;;23.23;16.50;;;11.80;99.90;;;;;;4951792;29;21389;-75
2022/03/31 12:15:32;;;;;;;23.27;15.97;;;11.70;99.90;;;;;;4952495;29;20460;-78
2022/03/31 12:18:07;;;;;;;24.20;16.27;;;11.80;99.90;;;;;;4951563;29;20556;-78
2022/03/31 12:20:37;;;;;;;22.57;16.13;;;11.90;99.90;;;;;;4951923;28;20469;-77
2022/03/31 12:23:20;;;;;;;27.67;17.40;;;11.90;99.90;;;;;;4952164;29;20476;-77
2022/03/31 12:25:47;;;;;;;23.30;15.90;;;11.80;99.90;;;;;;4952378;28;20524;-76
2022/03/31 12:28:14;;;;;;;28.97;16.60;;;11.80;99.90;;;;;;4951243;28;20497;-77
2022/03/31 12:30:47;;;;;;;24.80;16.17;;;11.80;99.90;;;;;;4952297;28;21153;-77
2022/03/31 12:33:18;;;;;;;24.67;15.77;;;11.80;99.90;;;;;;4951931;29;20441;-76
2022/03/31 12:35:57;;;;;;;22.37;15.57;;;11.80;99.90;;;;;;4952544;29;20529;-77
2022/03/31 12:38:39;;;;;;;26.93;17.00;;;11.90;99.90;;;;;;4951842;29;20437;-76
2022/03/31 12:41:18;;;;;;;23.50;16.30;;;12.00;99.90;;;;;;4952113;28;20480;-78
2022/03/31 12:43:57;;;;;;;23.63;15.40;;;12.00;99.90;;;;;;4952534;29;20524;-77
2022/03/31 12:46:26;;;;;;;24.37;15.70;;;12.00;99.90;;;;;;4950744;28;20537;-78
2022/03/31 12:48:57;;;;;;;23.70;15.20;;;12.00;99.90;;;;;;4951579;29;20489;-77
2022/03/31 12:51:24;;;;;;;22.37;15.23;;;12.10;99.90;;;;;;4952178;28;20497;-76
2022/03/31 12:53:53;;;;;;;24.83;16.23;;;12.20;99.90;;;;;;4952014;29;20457;-76
2022/03/31 12:56:25;;;;;;;24.60;16.10;;;12.20;99.90;;;;;;4951370;29;20449;-78
2022/03/31 12:58:53;;;;;;;25.30;15.90;;;12.30;99.90;;;;;;4951676;29;20449;-70
2022/03/31 13:01:21;;;;;;;24.63;16.00;;;12.20;99.90;;;;;;4953570;29;20477;-71
2022/03/31 13:03:48;;;;;;;25.57;16.60;;;12.30;99.90;;;;;;4951412;29;20486;-76
2022/03/31 13:06:16;;;;;;;23.37;15.93;;;12.30;99.90;;;;;;4951269;29;20462;-77
2022/03/31 13:08:43;;;;;;;23.83;15.13;;;12.20;99.90;;;;;;4950760;29;20543;-78
2022/03/31 13:11:13;;;;;;;23.80;15.80;;;12.20;99.90;;;;;;4951362;28;20861;-76
2022/03/31 13:13:40;;;;;;;22.20;15.70;;;12.30;99.90;;;;;;4951741;29;20461;-76
2022/03/31 13:16:07;;;;;;;22.00;14.83;;;12.20;99.90;;;;;;4951386;28;20462;-77
2022/03/31 13:18:35;;;;;;;22.07;15.17;;;12.20;99.90;;;;;;4951062;29;20461;-77
2022/03/31 13:21:03;;;;;;;22.53;15.80;;;12.20;99.90;;;;;;4951480;29;20480;-76
2022/03/31 13:23:30;;;;;;;22.23;15.53;;;12.20;99.90;;;;;;4951821;29;20462;-77
2022/03/31 13:25:57;;;;;;;21.50;13.60;;;12.20;99.90;;;;;;4952033;29;20556;-75
2022/03/31 13:28:28;;;;;;;21.37;16.03;;;12.10;99.90;;;;;;4950498;29;21120;-78
2022/03/31 13:30:55;;;;;;;23.63;16.20;;;12.10;99.90;;;;;;4950037;29;20567;-75
2022/03/31 13:33:23;;;;;;;23.47;16.40;;;12.00;99.90;;;;;;4949556;29;21036;-76
2022/03/31 13:35:50;;;;;;;21.73;15.50;;;12.00;99.90;;;;;;4950040;29;20461;-77
2022/03/31 13:38:17;;;;;;;21.63;15.20;;;11.90;99.90;;;;;;4950302;29;20477;-75
2022/03/31 13:40:44;;;;;;;21.73;14.60;;;11.90;99.90;;;;;;4950336;29;20561;-78
2022/03/31 13:43:11;;;;;;;21.97;15.50;;;11.90;99.90;;;;;;4950379;29;20493;-76
2022/03/31 13:45:42;;;;;;;25.10;16.37;;;11.90;99.90;;;;;;4981480;28;20461;-79
2022/03/31 13:48:09;;;;;;;22.10;14.63;;;11.90;99.90;;;;;;4950051;29;20505;-78
2022/03/31 13:50:39;;;;;;;23.40;14.50;;;12.00;99.90;;;;;;4950514;29;20480;-80
2022/03/31 13:55:51;;;;;;;20.90;14.17;;;12.00;99.90;;;;;;4950162;29;20440;-76
2022/03/31 14:01:10;;;;;;;19.33;13.73;;;12.00;99.90;;;;;;4950077;29;20523;-76
2022/03/31 14:03:39;;;;;;;23.60;16.27;;;12.00;99.90;;;;;;4950018;29;20464;-77
2022/03/31 14:06:07;;;;;;;21.80;15.50;;;12.10;99.90;;;;;;4949566;29;20856;-77
2022/03/31 14:08:35;;;;;;;23.07;15.60;;;12.10;99.90;;;;;;4950058;29;20874;-77
2022/03/31 14:11:04;;;;;;;21.30;14.13;;;12.00;99.90;;;;;;4983551;28;20520;-77
2022/03/31 14:13:31;;;;;;;21.20;14.03;;;12.00;99.90;;;;;;4954139;29;20457;-78
2022/03/31 14:16:00;;;;;;;21.17;14.70;;;12.00;99.90;;;;;;4952772;29;20465;-79
2022/03/31 14:18:30;;;;;;;19.40;13.80;;;12.00;99.90;;;;;;4952742;29;20472;-79
2022/03/31 14:20:57;;;;;;;23.97;16.10;;;12.00;99.90;;;;;;4952748;29;20536;-80
2022/03/31 14:23:24;;;;;;;21.33;15.27;;;12.00;99.90;;;;;;4959289;29;20544;-78
2022/03/31 14:25:54;;;;;;;19.60;14.50;;;12.00;99.90;;;;;;4956173;29;20458;-78
2022/03/31 14:28:21;;;;;;;22.60;16.33;;;12.00;99.90;;;;;;4952680;29;20521;-78
2022/03/31 14:30:48;;;;;;;22.50;16.03;;;12.00;99.90;;;;;;4952542;29;20517;-77
2022/03/31 14:33:15;;;;;;;20.17;14.87;;;12.00;99.90;;;;;;4951923;29;20977;-77
2022/03/31 14:35:49;;;;;;;22.00;14.23;;;12.00;99.90;;;;;;4949114;29;20457;-77
2022/03/31 14:38:17;;;;;;;19.93;14.83;;;12.00;99.90;;;;;;4947455;28;20449;-78
2022/03/31 14:40:45;;;;;;;21.90;15.07;;;12.00;99.90;;;;;;4948404;29;20993;-76
2022/03/31 14:43:13;;;;;;;21.10;15.50;;;12.00;99.90;;;;;;4947770;28;20962;-77
2022/03/31 14:45:40;;;;;;;20.97;15.33;;;12.00;99.90;;;;;;4947601;29;20827;-78
2022/03/31 14:48:09;;;;;;;24.10;16.20;;;11.90;99.90;;;;;;4947140;29;20497;-77
2022/03/31 14:50:36;;;;;;;25.70;17.00;;;11.90;99.90;;;;;;4947505;29;21041;-77
2022/03/31 14:53:05;;;;;;;26.50;17.50;;;12.00;99.90;;;;;;4950658;29;20521;-79
2022/03/31 14:55:33;;;;;;;24.40;17.00;;;11.90;99.90;;;;;;4952391;28;20560;-79
2022/03/31 14:58:00;;;;;;;25.80;17.20;;;11.90;99.90;;;;;;4951768;28;20458;-78
2022/03/31 15:00:27;;;;;;;24.63;17.23;;;11.90;99.90;;;;;;4952100;28;20460;-77
2022/03/31 15:02:54;;;;;;;25.70;16.20;;;11.90;99.90;;;;;;4953198;29;21009;-79
2022/03/31 15:05:22;;;;;;;25.70;17.73;;;11.90;99.90;;;;;;4951917;29;20457;-79
2022/03/31 15:07:49;;;;;;;21.97;16.10;;;12.00;99.90;;;;;;4951733;29;20511;-76
2022/03/31 15:15:48;;;;;;;27.67;18.50;;;12.00;99.90;;;;;;4951866;29;21004;-78
2022/03/31 15:18:18;;;;;;;22.90;16.53;;;11.90;99.90;;;;;;4951130;29;20477;-76
2022/03/31 15:20:44;;;;;;;28.27;16.67;;;12.00;99.90;;;;;;4952109;28;20880;-78
2022/03/31 15:23:11;;;;;;;25.10;17.30;;;12.00;99.90;;;;;;4953126;29;20461;-76
2022/03/31 15:25:40;;;;;;;23.57;16.43;;;12.00;99.90;;;;;;4957556;29;20520;-79
2022/03/31 15:28:07;;;;;;;27.90;17.47;;;11.90;99.90;;;;;;4951020;29;20500;-79
2022/03/31 15:30:34;;;;;;;24.00;18.57;;;11.90;99.90;;;;;;4950864;28;20572;-78
2022/03/31 15:33:01;;;;;;;24.30;16.67;;;11.90;99.90;;;;;;4951350;29;20544;-79
2022/03/31 15:35:28;;;;;;;25.53;17.40;;;11.90;99.90;;;;;;4951521;29;20487;-77
2022/03/31 15:37:55;;;;;;;28.60;18.27;;;11.80;99.90;;;;;;4950666;29;20454;-77
2022/03/31 15:40:22;;;;;;;25.20;17.43;;;11.80;99.90;;;;;;4946891;28;20457;-78
2022/03/31 15:42:50;;;;;;;27.60;18.00;;;11.70;99.90;;;;;;4947089;28;20544;-77
2022/03/31 15:45:17;;;;;;;23.93;16.10;;;11.70;99.90;;;;;;4947007;28;21038;-76
2022/03/31 15:47:44;;;;;;;26.07;16.90;;;11.70;99.90;;;;;;4946444;29;20460;-77
2022/03/31 15:50:11;;;;;;;25.40;17.40;;;11.80;99.90;;;;;;4947016;29;20465;-76
2022/03/31 15:52:38;;;;;;;25.43;16.83;;;11.70;99.90;;;;;;4946980;28;20481;-77
2022/03/31 15:55:07;;;;;;;29.23;18.80;;;11.70;99.90;;;;;;4947137;29;20544;-77
2022/03/31 15:57:34;;;;;;;25.73;17.07;;;11.60;99.90;;;;;;4946262;29;20462;-76
2022/03/31 16:00:03;;;;;;;28.67;18.40;;;11.60;99.90;;;;;;4946612;29;20965;-79
2022/03/31 16:02:31;;;;;;;30.60;19.40;;;11.60;99.90;;;;;;4947885;28;20945;-78
2022/03/31 16:04:58;;;;;;;47.50;33.77;;;11.50;99.90;;;;;;4950541;29;20468;-78
2022/03/31 16:07:25;;;;;;;26.63;18.77;;;11.40;99.90;;;;;;4950090;29;20544;-78
2022/03/31 16:09:51;;;;;;;30.87;19.43;;;11.40;99.90;;;;;;4950153;29;20501;-78
2022/03/31 16:12:18;;;;;;;30.87;17.93;;;11.40;99.90;;;;;;4950603;28;20548;-76
2022/03/31 16:14:45;;;;;;;24.37;17.63;;;11.50;99.90;;;;;;4949137;29;20461;-77
2022/03/31 16:17:14;;;;;;;32.07;19.27;;;11.50;99.90;;;;;;4947095;29;20560;-77
2022/03/31 16:19:41;;;;;;;28.40;19.30;;;11.40;99.90;;;;;;4947872;29;20454;-77
2022/03/31 16:22:11;;;;;;;27.07;16.90;;;11.30;99.90;;;;;;4947730;28;20479;-77
2022/03/31 16:24:39;;;;;;;26.37;17.60;;;11.30;99.90;;;;;;4954534;29;21422;-77
2022/03/31 16:27:06;;;;;;;29.40;19.50;;;11.30;99.90;;;;;;4953980;29;20461;-75
2022/03/31 16:29:32;;;;;;;28.97;17.67;;;11.20;99.90;;;;;;4954064;29;21044;-78
2022/03/31 16:32:00;;;;;;;28.50;18.10;;;11.20;99.90;;;;;;4953803;28;20539;-77
2022/03/31 16:34:28;;;;;;;27.90;18.47;;;11.20;99.90;;;;;;4954076;29;20461;-78
2022/03/31 16:36:55;;;;;;;29.27;19.97;;;11.20;99.90;;;;;;4953608;29;20556;-78
2022/03/31 16:39:23;;;;;;;29.30;18.47;;;11.10;99.90;;;;;;4953389;29;20453;-77
2022/03/31 16:41:51;;;;;;;25.30;17.60;;;11.10;99.90;;;;;;4954626;28;21132;-77
2022/03/31 16:44:20;;;;;;;28.90;19.57;;;11.10;99.90;;;;;;4954531;29;20488;-76
2022/03/31 16:46:47;;;;;;;25.37;17.70;;;11.10;99.90;;;;;;4952982;29;20883;-77
2022/03/31 16:49:15;;;;;;;26.93;18.83;;;11.10;99.90;;;;;;4952312;29;20504;-78
2022/03/31 16:51:43;;;;;;;27.03;17.80;;;11.10;99.90;;;;;;4952483;28;20489;-76